Sherman Oaks, California
Current Conditions -  °F | °C
As of 9:51 PM on Saturday 22 Nov 2014 (Local Time) from KVNY Reporting Station
Clear Clear  
Wind Chill: 15°   Ceiling: Unl
Heat Index: 15°   Visibility: 10mi
Dew Point: 12°   Wind: 5mph
Humidity: 81%   Direction: 100°E
Pressure: 30.04"   Gusts: NA
Location:  34.15°N, 118.45°W
Report Text: KVNY 230551Z 10004KT 10SM CLR 15/12 A3004 RMK AO2 SLP168 T01500117 10211 20144 51013
Loading
Personal Weather Stations






























Interactive Weather Map New forecast layout! Learn more

10-Day Weather Forecast

Advertisements
Track Severe Weather on mobile